sensor_id;sensor_type;location;lat;lon;timestamp;P1;durP1;ratioP1;P2;durP2;ratioP2
13228;SDS011;6680;53.220;10.402;2022-09-01T00:01:33;1.63;;;1.50;;
13228;SDS011;6680;53.220;10.402;2022-09-01T00:04:02;1.50;;;1.40;;
13228;SDS011;6680;53.220;10.402;2022-09-01T00:06:30;1.60;;;1.50;;
13228;SDS011;6680;53.220;10.402;2022-09-01T00:08:59;1.80;;;1.70;;
13228;SDS011;6680;53.220;10.402;2022-09-01T00:11:29;1.77;;;1.67;;
13228;SDS011;6680;53.220;10.402;2022-09-01T00:13:57;1.63;;;1.53;;
13228;SDS011;6680;53.220;10.402;2022-09-01T00:16:26;1.93;;;1.83;;
13228;SDS011;6680;53.220;10.402;2022-09-01T00:18:53;3.03;;;1.67;;
13228;SDS011;6680;53.220;10.402;2022-09-01T00:21:21;2.53;;;1.80;;
13228;SDS011;6680;53.220;10.402;2022-09-01T00:23:50;1.90;;;1.80;;
13228;SDS011;6680;53.220;10.402;2022-09-01T00:26:18;3.27;;;1.63;;
13228;SDS011;6680;53.220;10.402;2022-09-01T00:28:45;1.60;;;1.50;;
13228;SDS011;6680;53.220;10.402;2022-09-01T00:31:12;1.97;;;1.60;;
13228;SDS011;6680;53.220;10.402;2022-09-01T00:33:40;1.87;;;1.77;;
13228;SDS011;6680;53.220;10.402;2022-09-01T00:36:07;1.57;;;1.47;;
13228;SDS011;6680;53.220;10.402;2022-09-01T00:38:34;1.60;;;1.50;;
13228;SDS011;6680;53.220;10.402;2022-09-01T00:41:01;2.17;;;1.97;;
13228;SDS011;6680;53.220;10.402;2022-09-01T00:43:36;3.37;;;1.30;;
13228;SDS011;6680;53.220;10.402;2022-09-01T00:46:05;1.50;;;1.43;;
13228;SDS011;6680;53.220;10.402;2022-09-01T00:48:34;1.70;;;1.60;;
13228;SDS011;6680;53.220;10.402;2022-09-01T00:51:01;1.97;;;1.87;;
13228;SDS011;6680;53.220;10.402;2022-09-01T00:53:29;1.77;;;1.40;;
13228;SDS011;6680;53.220;10.402;2022-09-01T00:55:57;1.63;;;1.53;;
13228;SDS011;6680;53.220;10.402;2022-09-01T00:58:24;1.93;;;1.83;;
13228;SDS011;6680;53.220;10.402;2022-09-01T01:00:53;1.70;;;1.60;;
13228;SDS011;6680;53.220;10.402;2022-09-01T01:03:19;1.50;;;1.40;;
13228;SDS011;6680;53.220;10.402;2022-09-01T01:05:48;2.80;;;1.70;;
13228;SDS011;6680;53.220;10.402;2022-09-01T01:08:19;2.87;;;2.73;;
13228;SDS011;6680;53.220;10.402;2022-09-01T01:10:55;3.97;;;1.60;;
13228;SDS011;6680;53.220;10.402;2022-09-01T01:13:22;2.30;;;1.33;;
13228;SDS011;6680;53.220;10.402;2022-09-01T01:15:52;1.57;;;1.47;;
13228;SDS011;6680;53.220;10.402;2022-09-01T01:18:19;2.20;;;1.73;;
13228;SDS011;6680;53.220;10.402;2022-09-01T01:20:46;1.67;;;1.57;;
13228;SDS011;6680;53.220;10.402;2022-09-01T01:23:34;1.60;;;1.50;;
13228;SDS011;6680;53.220;10.402;2022-09-01T01:26:07;1.83;;;1.53;;
13228;SDS011;6680;53.220;10.402;2022-09-01T01:28:37;1.70;;;1.60;;
13228;SDS011;6680;53.220;10.402;2022-09-01T01:31:06;1.70;;;1.60;;
13228;SDS011;6680;53.220;10.402;2022-09-01T01:33:36;1.60;;;1.47;;
13228;SDS011;6680;53.220;10.402;2022-09-01T01:36:06;2.20;;;1.70;;
13228;SDS011;6680;53.220;10.402;2022-09-01T01:38:37;1.60;;;1.50;;
13228;SDS011;6680;53.220;10.402;2022-09-01T01:41:08;1.60;;;1.50;;
13228;SDS011;6680;53.220;10.402;2022-09-01T01:43:34;2.10;;;1.60;;
13228;SDS011;6680;53.220;10.402;2022-09-01T01:46:02;1.60;;;1.50;;
13228;SDS011;6680;53.220;10.402;2022-09-01T01:48:30;5.00;;;1.60;;
13228;SDS011;6680;53.220;10.402;2022-09-01T01:50:59;2.27;;;1.33;;
13228;SDS011;6680;53.220;10.402;2022-09-01T01:53:26;1.83;;;1.73;;
13228;SDS011;6680;53.220;10.402;2022-09-01T01:55:54;2.23;;;1.77;;
13228;SDS011;6680;53.220;10.402;2022-09-01T01:58:23;2.67;;;1.83;;
13228;SDS011;6680;53.220;10.402;2022-09-01T02:00:53;1.70;;;1.60;;
13228;SDS011;6680;53.220;10.402;2022-09-01T02:03:21;1.33;;;1.23;;
13228;SDS011;6680;53.220;10.402;2022-09-01T02:05:50;1.50;;;1.40;;
13228;SDS011;6680;53.220;10.402;2022-09-01T02:08:19;1.70;;;1.60;;
13228;SDS011;6680;53.220;10.402;2022-09-01T02:10:51;2.67;;;1.97;;
13228;SDS011;6680;53.220;10.402;2022-09-01T02:13:19;1.73;;;1.63;;
13228;SDS011;6680;53.220;10.402;2022-09-01T02:15:56;1.80;;;1.70;;
13228;SDS011;6680;53.220;10.402;2022-09-01T02:18:26;2.40;;;2.20;;
13228;SDS011;6680;53.220;10.402;2022-09-01T02:20:58;1.83;;;1.73;;
13228;SDS011;6680;53.220;10.402;2022-09-01T02:23:25;1.70;;;1.60;;
13228;SDS011;6680;53.220;10.402;2022-09-01T02:25:55;1.60;;;1.50;;
13228;SDS011;6680;53.220;10.402;2022-09-01T02:28:26;1.90;;;1.80;;
13228;SDS011;6680;53.220;10.402;2022-09-01T02:30:57;2.50;;;1.60;;
13228;SDS011;6680;53.220;10.402;2022-09-01T02:33:26;1.60;;;1.50;;
13228;SDS011;6680;53.220;10.402;2022-09-01T02:35:55;1.60;;;1.50;;
13228;SDS011;6680;53.220;10.402;2022-09-01T02:38:25;1.67;;;1.57;;
13228;SDS011;6680;53.220;10.402;2022-09-01T02:40:53;1.60;;;1.50;;
13228;SDS011;6680;53.220;10.402;2022-09-01T02:43:20;2.07;;;1.47;;
13228;SDS011;6680;53.220;10.402;2022-09-01T02:45:48;1.43;;;1.33;;
13228;SDS011;6680;53.220;10.402;2022-09-01T02:48:21;1.73;;;1.50;;
13228;SDS011;6680;53.220;10.402;2022-09-01T02:50:51;1.60;;;1.50;;
13228;SDS011;6680;53.220;10.402;2022-09-01T02:53:20;1.67;;;1.57;;
13228;SDS011;6680;53.220;10.402;2022-09-01T02:55:47;1.80;;;1.70;;
13228;SDS011;6680;53.220;10.402;2022-09-01T02:58:15;1.93;;;1.40;;
13228;SDS011;6680;53.220;10.402;2022-09-01T03:00:44;1.53;;;1.43;;
13228;SDS011;6680;53.220;10.402;2022-09-01T03:03:11;1.87;;;1.70;;
13228;SDS011;6680;53.220;10.402;2022-09-01T03:05:42;1.70;;;1.60;;
13228;SDS011;6680;53.220;10.402;2022-09-01T03:08:10;1.60;;;1.50;;
13228;SDS011;6680;53.220;10.402;2022-09-01T03:10:41;1.67;;;1.57;;
13228;SDS011;6680;53.220;10.402;2022-09-01T03:13:10;1.53;;;1.43;;
13228;SDS011;6680;53.220;10.402;2022-09-01T03:15:39;1.73;;;1.63;;
13228;SDS011;6680;53.220;10.402;2022-09-01T03:18:06;1.80;;;1.70;;
13228;SDS011;6680;53.220;10.402;2022-09-01T03:20:35;1.80;;;1.70;;
13228;SDS011;6680;53.220;10.402;2022-09-01T03:23:10;2.00;;;1.80;;
13228;SDS011;6680;53.220;10.402;2022-09-01T03:25:39;1.43;;;1.33;;
13228;SDS011;6680;53.220;10.402;2022-09-01T03:28:06;1.87;;;1.60;;
13228;SDS011;6680;53.220;10.402;2022-09-01T03:30:34;1.57;;;1.47;;
13228;SDS011;6680;53.220;10.402;2022-09-01T03:33:05;1.77;;;1.67;;
13228;SDS011;6680;53.220;10.402;2022-09-01T03:35:32;1.70;;;1.60;;
13228;SDS011;6680;53.220;10.402;2022-09-01T03:38:00;1.53;;;1.43;;
13228;SDS011;6680;53.220;10.402;2022-09-01T03:40:29;1.90;;;1.63;;
13228;SDS011;6680;53.220;10.402;2022-09-01T03:42:58;1.80;;;1.70;;
13228;SDS011;6680;53.220;10.402;2022-09-01T03:45:27;2.20;;;1.87;;
13228;SDS011;6680;53.220;10.402;2022-09-01T03:47:54;2.10;;;1.90;;
13228;SDS011;6680;53.220;10.402;2022-09-01T03:50:22;3.27;;;2.00;;
13228;SDS011;6680;53.220;10.402;2022-09-01T03:52:51;1.50;;;1.40;;
13228;SDS011;6680;53.220;10.402;2022-09-01T03:55:19;1.80;;;1.70;;
13228;SDS011;6680;53.220;10.402;2022-09-01T03:57:53;2.77;;;1.77;;
13228;SDS011;6680;53.220;10.402;2022-09-01T04:00:23;1.60;;;1.50;;
13228;SDS011;6680;53.220;10.402;2022-09-01T04:02:54;1.70;;;1.60;;
13228;SDS011;6680;53.220;10.402;2022-09-01T04:05:22;1.50;;;1.40;;
13228;SDS011;6680;53.220;10.402;2022-09-01T04:07:53;1.50;;;1.40;;
13228;SDS011;6680;53.220;10.402;2022-09-01T04:10:21;2.00;;;1.80;;
13228;SDS011;6680;53.220;10.402;2022-09-01T04:12:48;1.73;;;1.63;;
13228;SDS011;6680;53.220;10.402;2022-09-01T04:15:17;1.77;;;1.67;;
13228;SDS011;6680;53.220;10.402;2022-09-01T04:17:44;1.73;;;1.63;;
13228;SDS011;6680;53.220;10.402;2022-09-01T04:20:28;1.70;;;1.60;;
13228;SDS011;6680;53.220;10.402;2022-09-01T04:23:03;1.97;;;1.67;;
13228;SDS011;6680;53.220;10.402;2022-09-01T04:25:34;1.70;;;1.30;;
13228;SDS011;6680;53.220;10.402;2022-09-01T04:28:02;3.20;;;1.97;;
13228;SDS011;6680;53.220;10.402;2022-09-01T04:30:38;1.87;;;1.60;;
13228;SDS011;6680;53.220;10.402;2022-09-01T04:33:06;2.10;;;1.90;;
13228;SDS011;6680;53.220;10.402;2022-09-01T04:35:36;2.60;;;1.93;;
13228;SDS011;6680;53.220;10.402;2022-09-01T04:38:04;1.60;;;1.50;;
13228;SDS011;6680;53.220;10.402;2022-09-01T04:40:32;1.80;;;1.70;;
13228;SDS011;6680;53.220;10.402;2022-09-01T04:43:02;1.70;;;1.60;;
13228;SDS011;6680;53.220;10.402;2022-09-01T04:45:29;1.97;;;1.77;;
13228;SDS011;6680;53.220;10.402;2022-09-01T04:47:58;1.60;;;1.50;;
13228;SDS011;6680;53.220;10.402;2022-09-01T04:50:25;1.80;;;1.70;;
13228;SDS011;6680;53.220;10.402;2022-09-01T04:52:56;1.67;;;1.57;;
13228;SDS011;6680;53.220;10.402;2022-09-01T04:55:24;2.00;;;1.90;;
13228;SDS011;6680;53.220;10.402;2022-09-01T04:57:53;1.70;;;1.60;;
13228;SDS011;6680;53.220;10.402;2022-09-01T05:00:22;1.53;;;1.43;;
13228;SDS011;6680;53.220;10.402;2022-09-01T05:02:51;1.60;;;1.50;;
13228;SDS011;6680;53.220;10.402;2022-09-01T05:05:21;2.90;;;1.90;;
13228;SDS011;6680;53.220;10.402;2022-09-01T05:07:48;1.70;;;1.60;;
13228;SDS011;6680;53.220;10.402;2022-09-01T05:10:17;1.87;;;1.73;;
13228;SDS011;6680;53.220;10.402;2022-09-01T05:12:45;1.93;;;1.83;;
13228;SDS011;6680;53.220;10.402;2022-09-01T05:15:12;1.77;;;1.63;;
13228;SDS011;6680;53.220;10.402;2022-09-01T05:17:41;2.20;;;2.10;;
13228;SDS011;6680;53.220;10.402;2022-09-01T05:20:09;1.73;;;1.63;;
13228;SDS011;6680;53.220;10.402;2022-09-01T05:22:39;1.73;;;1.63;;
13228;SDS011;6680;53.220;10.402;2022-09-01T05:25:06;2.90;;;1.93;;
13228;SDS011;6680;53.220;10.402;2022-09-01T05:27:38;2.73;;;2.53;;
13228;SDS011;6680;53.220;10.402;2022-09-01T05:30:06;1.93;;;1.83;;
13228;SDS011;6680;53.220;10.402;2022-09-01T05:32:34;1.90;;;1.80;;
13228;SDS011;6680;53.220;10.402;2022-09-01T05:35:03;3.87;;;2.07;;
13228;SDS011;6680;53.220;10.402;2022-09-01T05:37:32;1.70;;;1.60;;
13228;SDS011;6680;53.220;10.402;2022-09-01T05:40:03;3.80;;;1.80;;
13228;SDS011;6680;53.220;10.402;2022-09-01T05:42:31;3.00;;;2.00;;
13228;SDS011;6680;53.220;10.402;2022-09-01T05:44:58;1.90;;;1.80;;
13228;SDS011;6680;53.220;10.402;2022-09-01T05:47:26;2.40;;;2.00;;
13228;SDS011;6680;53.220;10.402;2022-09-01T05:49:53;1.73;;;1.63;;
13228;SDS011;6680;53.220;10.402;2022-09-01T05:52:22;1.90;;;1.80;;
13228;SDS011;6680;53.220;10.402;2022-09-01T05:54:50;2.57;;;2.00;;
13228;SDS011;6680;53.220;10.402;2022-09-01T05:57:18;2.00;;;1.90;;
13228;SDS011;6680;53.220;10.402;2022-09-01T05:59:45;1.80;;;1.70;;
13228;SDS011;6680;53.220;10.402;2022-09-01T06:02:17;1.40;;;1.40;;
13228;SDS011;6680;53.220;10.402;2022-09-01T06:04:45;2.40;;;1.87;;
13228;SDS011;6680;53.220;10.402;2022-09-01T06:07:13;1.70;;;1.60;;
13228;SDS011;6680;53.220;10.402;2022-09-01T06:09:42;1.97;;;1.53;;
13228;SDS011;6680;53.220;10.402;2022-09-01T06:12:11;1.70;;;1.60;;
13228;SDS011;6680;53.220;10.402;2022-09-01T06:14:43;1.60;;;1.50;;
13228;SDS011;6680;53.220;10.402;2022-09-01T06:17:11;1.40;;;1.40;;
13228;SDS011;6680;53.220;10.402;2022-09-01T06:19:40;1.63;;;1.53;;
13228;SDS011;6680;53.220;10.402;2022-09-01T06:22:07;7.93;;;2.90;;
13228;SDS011;6680;53.220;10.402;2022-09-01T06:24:34;4.43;;;2.93;;
13228;SDS011;6680;53.220;10.402;2022-09-01T06:27:03;4.27;;;2.50;;
13228;SDS011;6680;53.220;10.402;2022-09-01T06:29:33;3.13;;;2.80;;
13228;SDS011;6680;53.220;10.402;2022-09-01T06:32:05;5.33;;;3.00;;
13228;SDS011;6680;53.220;10.402;2022-09-01T06:34:33;3.73;;;3.40;;
13228;SDS011;6680;53.220;10.402;2022-09-01T06:37:00;5.07;;;3.30;;
13228;SDS011;6680;53.220;10.402;2022-09-01T06:39:27;4.13;;;3.60;;
13228;SDS011;6680;53.220;10.402;2022-09-01T06:41:55;5.50;;;2.87;;
13228;SDS011;6680;53.220;10.402;2022-09-01T06:44:23;4.30;;;2.90;;
13228;SDS011;6680;53.220;10.402;2022-09-01T06:46:50;3.90;;;2.80;;
13228;SDS011;6680;53.220;10.402;2022-09-01T06:49:18;4.17;;;2.40;;
13228;SDS011;6680;53.220;10.402;2022-09-01T06:51:47;4.93;;;2.90;;
13228;SDS011;6680;53.220;10.402;2022-09-01T06:54:16;6.03;;;2.50;;
13228;SDS011;6680;53.220;10.402;2022-09-01T06:56:43;2.47;;;2.20;;
13228;SDS011;6680;53.220;10.402;2022-09-01T06:59:10;1.80;;;1.70;;
13228;SDS011;6680;53.220;10.402;2022-09-01T07:01:39;1.73;;;1.63;;
13228;SDS011;6680;53.220;10.402;2022-09-01T07:04:06;1.60;;;1.50;;
13228;SDS011;6680;53.220;10.402;2022-09-01T07:06:35;2.20;;;1.87;;
13228;SDS011;6680;53.220;10.402;2022-09-01T07:09:04;1.80;;;1.70;;
13228;SDS011;6680;53.220;10.402;2022-09-01T07:11:32;4.03;;;1.80;;
13228;SDS011;6680;53.220;10.402;2022-09-01T07:14:01;1.43;;;1.30;;
13228;SDS011;6680;53.220;10.402;2022-09-01T07:16:30;1.67;;;1.57;;
13228;SDS011;6680;53.220;10.402;2022-09-01T07:19:03;2.40;;;1.80;;
13228;SDS011;6680;53.220;10.402;2022-09-01T07:21:30;1.50;;;1.40;;
13228;SDS011;6680;53.220;10.402;2022-09-01T07:23:59;1.60;;;1.50;;
13228;SDS011;6680;53.220;10.402;2022-09-01T07:26:28;1.63;;;1.53;;
13228;SDS011;6680;53.220;10.402;2022-09-01T07:28:55;1.60;;;1.50;;
13228;SDS011;6680;53.220;10.402;2022-09-01T07:31:23;1.60;;;1.50;;
13228;SDS011;6680;53.220;10.402;2022-09-01T07:33:52;1.67;;;1.57;;
13228;SDS011;6680;53.220;10.402;2022-09-01T07:36:23;1.40;;;1.30;;
13228;SDS011;6680;53.220;10.402;2022-09-01T07:38:50;1.40;;;1.30;;
13228;SDS011;6680;53.220;10.402;2022-09-01T07:41:19;1.20;;;1.20;;
13228;SDS011;6680;53.220;10.402;2022-09-01T07:43:47;2.93;;;1.20;;
13228;SDS011;6680;53.220;10.402;2022-09-01T07:46:15;1.10;;;1.10;;
13228;SDS011;6680;53.220;10.402;2022-09-01T07:48:42;1.70;;;1.20;;
13228;SDS011;6680;53.220;10.402;2022-09-01T07:51:10;3.87;;;1.70;;
13228;SDS011;6680;53.220;10.402;2022-09-01T07:53:38;1.23;;;1.20;;
13228;SDS011;6680;53.220;10.402;2022-09-01T07:56:06;1.00;;;1.00;;
13228;SDS011;6680;53.220;10.402;2022-09-01T07:58:35;1.00;;;1.00;;
13228;SDS011;6680;53.220;10.402;2022-09-01T08:01:05;1.10;;;1.10;;
13228;SDS011;6680;53.220;10.402;2022-09-01T08:03:33;2.30;;;2.17;;
13228;SDS011;6680;53.220;10.402;2022-09-01T08:06:01;1.80;;;1.07;;
13228;SDS011;6680;53.220;10.402;2022-09-01T08:08:30;1.10;;;1.10;;
13228;SDS011;6680;53.220;10.402;2022-09-01T08:10:56;1.50;;;1.40;;
13228;SDS011;6680;53.220;10.402;2022-09-01T08:13:23;1.40;;;1.30;;
13228;SDS011;6680;53.220;10.402;2022-09-01T08:15:51;0.90;;;0.90;;
13228;SDS011;6680;53.220;10.402;2022-09-01T08:18:18;1.33;;;1.23;;
13228;SDS011;6680;53.220;10.402;2022-09-01T08:20:45;1.47;;;1.37;;
13228;SDS011;6680;53.220;10.402;2022-09-01T08:23:13;0.80;;;0.80;;
13228;SDS011;6680;53.220;10.402;2022-09-01T08:25:43;1.20;;;1.20;;
13228;SDS011;6680;53.220;10.402;2022-09-01T08:28:11;1.00;;;1.00;;
13228;SDS011;6680;53.220;10.402;2022-09-01T08:30:39;1.03;;;1.03;;
13228;SDS011;6680;53.220;10.402;2022-09-01T08:33:08;1.27;;;1.27;;
13228;SDS011;6680;53.220;10.402;2022-09-01T08:35:37;1.13;;;1.13;;
13228;SDS011;6680;53.220;10.402;2022-09-01T08:38:04;1.17;;;1.17;;
13228;SDS011;6680;53.220;10.402;2022-09-01T08:40:31;1.23;;;1.00;;
13228;SDS011;6680;53.220;10.402;2022-09-01T08:43:01;1.10;;;1.10;;
13228;SDS011;6680;53.220;10.402;2022-09-01T08:45:36;1.07;;;1.07;;
13228;SDS011;6680;53.220;10.402;2022-09-01T08:48:13;1.50;;;1.40;;
13228;SDS011;6680;53.220;10.402;2022-09-01T08:50:44;1.10;;;1.10;;
13228;SDS011;6680;53.220;10.402;2022-09-01T08:53:18;1.20;;;1.17;;
13228;SDS011;6680;53.220;10.402;2022-09-01T08:55:53;2.10;;;1.40;;
13228;SDS011;6680;53.220;10.402;2022-09-01T08:58:22;1.10;;;1.10;;
13228;SDS011;6680;53.220;10.402;2022-09-01T09:00:52;0.97;;;0.97;;
13228;SDS011;6680;53.220;10.402;2022-09-01T09:03:29;1.10;;;1.10;;
13228;SDS011;6680;53.220;10.402;2022-09-01T09:06:04;1.00;;;1.00;;
13228;SDS011;6680;53.220;10.402;2022-09-01T09:08:50;1.13;;;1.03;;
13228;SDS011;6680;53.220;10.402;2022-09-01T09:11:26;1.13;;;1.13;;
13228;SDS011;6680;53.220;10.402;2022-09-01T09:14:20;1.33;;;1.33;;
13228;SDS011;6680;53.220;10.402;2022-09-01T09:17:02;1.00;;;1.00;;
13228;SDS011;6680;53.220;10.402;2022-09-01T09:19:31;1.17;;;1.17;;
13228;SDS011;6680;53.220;10.402;2022-09-01T09:22:01;1.60;;;1.50;;
13228;SDS011;6680;53.220;10.402;2022-09-01T09:24:31;1.57;;;1.47;;
13228;SDS011;6680;53.220;10.402;2022-09-01T09:27:15;1.27;;;1.17;;
13228;SDS011;6680;53.220;10.402;2022-09-01T09:29:44;1.00;;;1.00;;
13228;SDS011;6680;53.220;10.402;2022-09-01T09:32:11;1.77;;;1.00;;
13228;SDS011;6680;53.220;10.402;2022-09-01T09:34:40;2.10;;;1.20;;
13228;SDS011;6680;53.220;10.402;2022-09-01T09:37:21;1.20;;;1.20;;
13228;SDS011;6680;53.220;10.402;2022-09-01T09:40:03;1.13;;;1.13;;
13228;SDS011;6680;53.220;10.402;2022-09-01T09:42:36;0.87;;;0.87;;
13228;SDS011;6680;53.220;10.402;2022-09-01T09:45:04;2.60;;;1.23;;
13228;SDS011;6680;53.220;10.402;2022-09-01T09:47:39;1.27;;;1.27;;
13228;SDS011;6680;53.220;10.402;2022-09-01T09:50:12;1.27;;;1.27;;
13228;SDS011;6680;53.220;10.402;2022-09-01T09:52:42;1.27;;;1.17;;
13228;SDS011;6680;53.220;10.402;2022-09-01T09:55:18;1.37;;;1.33;;
13228;SDS011;6680;53.220;10.402;2022-09-01T09:57:48;1.40;;;1.30;;
13228;SDS011;6680;53.220;10.402;2022-09-01T10:00:19;1.40;;;1.40;;
13228;SDS011;6680;53.220;10.402;2022-09-01T10:02:50;1.30;;;1.30;;
13228;SDS011;6680;53.220;10.402;2022-09-01T10:05:26;1.30;;;1.30;;
13228;SDS011;6680;53.220;10.402;2022-09-01T10:07:58;1.40;;;1.30;;
13228;SDS011;6680;53.220;10.402;2022-09-01T10:10:28;1.40;;;1.30;;
13228;SDS011;6680;53.220;10.402;2022-09-01T10:12:57;1.17;;;1.10;;
13228;SDS011;6680;53.220;10.402;2022-09-01T10:15:25;1.47;;;1.37;;
13228;SDS011;6680;53.220;10.402;2022-09-01T10:17:54;1.57;;;1.30;;
13228;SDS011;6680;53.220;10.402;2022-09-01T10:20:27;1.40;;;1.30;;
13228;SDS011;6680;53.220;10.402;2022-09-01T10:22:54;1.53;;;1.43;;
13228;SDS011;6680;53.220;10.402;2022-09-01T10:25:22;1.40;;;1.40;;
13228;SDS011;6680;53.220;10.402;2022-09-01T10:27:53;1.33;;;1.30;;
13228;SDS011;6680;53.220;10.402;2022-09-01T10:30:23;1.43;;;1.43;;
13228;SDS011;6680;53.220;10.402;2022-09-01T10:32:51;0.97;;;0.97;;
13228;SDS011;6680;53.220;10.402;2022-09-01T10:35:20;1.27;;;1.27;;
13228;SDS011;6680;53.220;10.402;2022-09-01T10:37:51;1.40;;;1.30;;
13228;SDS011;6680;53.220;10.402;2022-09-01T10:43:24;1.50;;;1.40;;
13228;SDS011;6680;53.220;10.402;2022-09-01T10:45:55;1.43;;;1.33;;
13228;SDS011;6680;53.220;10.402;2022-09-01T10:48:23;1.50;;;1.40;;
13228;SDS011;6680;53.220;10.402;2022-09-01T10:50:53;1.40;;;1.30;;
13228;SDS011;6680;53.220;10.402;2022-09-01T10:53:42;1.50;;;1.40;;
13228;SDS011;6680;53.220;10.402;2022-09-01T10:56:10;1.00;;;1.00;;
13228;SDS011;6680;53.220;10.402;2022-09-01T10:58:45;1.10;;;1.10;;
13228;SDS011;6680;53.220;10.402;2022-09-01T11:07:35;1.43;;;1.10;;
13228;SDS011;6680;53.220;10.402;2022-09-01T11:10:26;1.30;;;1.20;;
13228;SDS011;6680;53.220;10.402;2022-09-01T11:13:08;1.23;;;1.23;;
13228;SDS011;6680;53.220;10.402;2022-09-01T11:16:03;1.20;;;1.20;;
13228;SDS011;6680;53.220;10.402;2022-09-01T11:18:55;1.33;;;1.30;;
13228;SDS011;6680;53.220;10.402;2022-09-01T11:21:41;1.13;;;1.13;;
13228;SDS011;6680;53.220;10.402;2022-09-01T11:30:23;2.03;;;1.30;;
13228;SDS011;6680;53.220;10.402;2022-09-01T11:33:01;1.30;;;1.30;;
13228;SDS011;6680;53.220;10.402;2022-09-01T11:35:36;1.43;;;1.33;;
13228;SDS011;6680;53.220;10.402;2022-09-01T11:38:04;0.77;;;0.77;;
13228;SDS011;6680;53.220;10.402;2022-09-01T11:40:34;1.30;;;1.30;;
13228;SDS011;6680;53.220;10.402;2022-09-01T11:43:02;1.23;;;1.23;;
13228;SDS011;6680;53.220;10.402;2022-09-01T11:45:32;1.50;;;1.40;;
13228;SDS011;6680;53.220;10.402;2022-09-01T11:48:08;1.40;;;1.30;;
13228;SDS011;6680;53.220;10.402;2022-09-01T11:50:37;2.50;;;1.60;;
13228;SDS011;6680;53.220;10.402;2022-09-01T11:53:07;1.70;;;1.60;;
13228;SDS011;6680;53.220;10.402;2022-09-01T11:55:36;1.87;;;1.77;;
13228;SDS011;6680;53.220;10.402;2022-09-01T11:58:06;1.70;;;1.57;;
13228;SDS011;6680;53.220;10.402;2022-09-01T12:00:38;1.53;;;1.43;;
13228;SDS011;6680;53.220;10.402;2022-09-01T12:03:18;1.90;;;1.80;;
13228;SDS011;6680;53.220;10.402;2022-09-01T12:05:47;1.33;;;1.33;;
13228;SDS011;6680;53.220;10.402;2022-09-01T12:08:18;1.47;;;1.37;;
13228;SDS011;6680;53.220;10.402;2022-09-01T12:10:46;1.10;;;1.10;;
13228;SDS011;6680;53.220;10.402;2022-09-01T12:13:17;1.40;;;1.30;;
13228;SDS011;6680;53.220;10.402;2022-09-01T12:15:52;1.90;;;1.73;;
13228;SDS011;6680;53.220;10.402;2022-09-01T12:18:22;1.70;;;1.60;;
13228;SDS011;6680;53.220;10.402;2022-09-01T12:20:52;1.60;;;1.50;;
13228;SDS011;6680;53.220;10.402;2022-09-01T12:23:23;1.60;;;1.50;;
13228;SDS011;6680;53.220;10.402;2022-09-01T12:25:51;2.03;;;1.93;;
13228;SDS011;6680;53.220;10.402;2022-09-01T12:28:19;1.87;;;1.40;;
13228;SDS011;6680;53.220;10.402;2022-09-01T12:30:48;1.60;;;1.30;;
13228;SDS011;6680;53.220;10.402;2022-09-01T12:33:18;1.57;;;1.20;;
13228;SDS011;6680;53.220;10.402;2022-09-01T12:35:46;1.30;;;1.30;;
13228;SDS011;6680;53.220;10.402;2022-09-01T12:38:27;1.47;;;1.43;;
13228;SDS011;6680;53.220;10.402;2022-09-01T12:40:55;1.37;;;1.27;;
13228;SDS011;6680;53.220;10.402;2022-09-01T12:43:27;1.20;;;1.10;;
13228;SDS011;6680;53.220;10.402;2022-09-01T12:45:55;1.67;;;1.57;;
13228;SDS011;6680;53.220;10.402;2022-09-01T12:48:26;1.90;;;1.40;;
13228;SDS011;6680;53.220;10.402;2022-09-01T12:50:55;1.17;;;1.10;;
13228;SDS011;6680;53.220;10.402;2022-09-01T12:53:25;0.93;;;0.93;;
13228;SDS011;6680;53.220;10.402;2022-09-01T12:55:58;0.97;;;0.97;;
13228;SDS011;6680;53.220;10.402;2022-09-01T12:58:42;1.20;;;1.20;;
13228;SDS011;6680;53.220;10.402;2022-09-01T13:01:23;1.50;;;1.40;;
13228;SDS011;6680;53.220;10.402;2022-09-01T13:06:48;1.20;;;1.20;;
13228;SDS011;6680;53.220;10.402;2022-09-01T13:09:15;1.20;;;1.20;;
13228;SDS011;6680;53.220;10.402;2022-09-01T13:11:42;1.60;;;1.50;;
13228;SDS011;6680;53.220;10.402;2022-09-01T13:14:11;1.10;;;1.10;;
13228;SDS011;6680;53.220;10.402;2022-09-01T13:16:39;1.30;;;1.30;;
13228;SDS011;6680;53.220;10.402;2022-09-01T13:19:06;1.63;;;1.53;;
13228;SDS011;6680;53.220;10.402;2022-09-01T13:21:35;1.30;;;1.30;;
13228;SDS011;6680;53.220;10.402;2022-09-01T13:24:02;1.33;;;1.30;;
13228;SDS011;6680;53.220;10.402;2022-09-01T13:26:31;1.50;;;1.40;;
13228;SDS011;6680;53.220;10.402;2022-09-01T13:28:58;1.60;;;1.50;;
13228;SDS011;6680;53.220;10.402;2022-09-01T13:31:25;1.57;;;1.47;;
13228;SDS011;6680;53.220;10.402;2022-09-01T13:33:53;1.40;;;1.40;;
13228;SDS011;6680;53.220;10.402;2022-09-01T13:36:20;2.30;;;1.60;;
13228;SDS011;6680;53.220;10.402;2022-09-01T13:38:48;1.40;;;1.20;;
13228;SDS011;6680;53.220;10.402;2022-09-01T13:41:15;1.53;;;1.17;;
13228;SDS011;6680;53.220;10.402;2022-09-01T13:43:42;1.40;;;1.40;;
13228;SDS011;6680;53.220;10.402;2022-09-01T13:46:09;1.30;;;1.20;;
13228;SDS011;6680;53.220;10.402;2022-09-01T13:48:36;2.10;;;1.90;;
13228;SDS011;6680;53.220;10.402;2022-09-01T13:51:03;2.17;;;1.80;;
13228;SDS011;6680;53.220;10.402;2022-09-01T13:53:29;1.40;;;1.37;;
13228;SDS011;6680;53.220;10.402;2022-09-01T13:55:57;2.67;;;1.57;;
13228;SDS011;6680;53.220;10.402;2022-09-01T13:58:24;3.60;;;1.70;;
13228;SDS011;6680;53.220;10.402;2022-09-01T14:00:51;1.47;;;1.37;;
13228;SDS011;6680;53.220;10.402;2022-09-01T14:03:19;1.40;;;1.40;;
13228;SDS011;6680;53.220;10.402;2022-09-01T14:05:48;1.47;;;1.40;;
13228;SDS011;6680;53.220;10.402;2022-09-01T14:08:15;1.70;;;1.60;;
13228;SDS011;6680;53.220;10.402;2022-09-01T14:10:45;2.43;;;1.20;;
13228;SDS011;6680;53.220;10.402;2022-09-01T14:13:16;1.30;;;1.30;;
13228;SDS011;6680;53.220;10.402;2022-09-01T14:15:44;2.73;;;1.70;;
13228;SDS011;6680;53.220;10.402;2022-09-01T14:18:12;1.17;;;1.17;;
13228;SDS011;6680;53.220;10.402;2022-09-01T14:20:41;1.40;;;1.40;;
13228;SDS011;6680;53.220;10.402;2022-09-01T14:23:09;1.33;;;1.33;;
13228;SDS011;6680;53.220;10.402;2022-09-01T14:25:40;0.97;;;0.97;;
13228;SDS011;6680;53.220;10.402;2022-09-01T14:28:08;1.50;;;1.43;;
13228;SDS011;6680;53.220;10.402;2022-09-01T14:30:36;1.77;;;1.30;;
13228;SDS011;6680;53.220;10.402;2022-09-01T14:33:06;1.43;;;1.33;;
13228;SDS011;6680;53.220;10.402;2022-09-01T14:35:35;1.23;;;1.13;;
13228;SDS011;6680;53.220;10.402;2022-09-01T14:38:03;1.27;;;1.20;;
13228;SDS011;6680;53.220;10.402;2022-09-01T14:40:31;1.70;;;1.60;;
13228;SDS011;6680;53.220;10.402;2022-09-01T14:42:58;1.27;;;1.17;;
13228;SDS011;6680;53.220;10.402;2022-09-01T14:45:26;1.50;;;1.40;;
13228;SDS011;6680;53.220;10.402;2022-09-01T14:47:55;1.60;;;1.50;;
13228;SDS011;6680;53.220;10.402;2022-09-01T14:50:24;1.30;;;1.30;;
13228;SDS011;6680;53.220;10.402;2022-09-01T14:52:54;1.40;;;1.40;;
13228;SDS011;6680;53.220;10.402;2022-09-01T14:55:22;1.40;;;1.30;;
13228;SDS011;6680;53.220;10.402;2022-09-01T14:57:51;1.37;;;1.27;;
13228;SDS011;6680;53.220;10.402;2022-09-01T15:00:19;1.30;;;1.20;;
13228;SDS011;6680;53.220;10.402;2022-09-01T15:02:48;1.40;;;1.30;;
13228;SDS011;6680;53.220;10.402;2022-09-01T15:05:17;1.37;;;1.27;;
13228;SDS011;6680;53.220;10.402;2022-09-01T15:07:44;1.70;;;1.60;;
13228;SDS011;6680;53.220;10.402;2022-09-01T15:10:11;1.07;;;1.07;;
13228;SDS011;6680;53.220;10.402;2022-09-01T15:12:40;1.60;;;1.50;;
13228;SDS011;6680;53.220;10.402;2022-09-01T15:15:07;1.20;;;1.20;;
13228;SDS011;6680;53.220;10.402;2022-09-01T15:17:34;1.50;;;1.40;;
13228;SDS011;6680;53.220;10.402;2022-09-01T15:20:03;0.90;;;0.90;;
13228;SDS011;6680;53.220;10.402;2022-09-01T15:22:46;1.10;;;1.10;;